sensor_id;sensor_type;location;lat;lon;timestamp;pressure;altitude;pressure_sealevel;temperature;humidity
54822;BME280;41299;43.546;16.426;2022-08-18T00:04:36;101304.16;;;23.02;100.00
54822;BME280;41299;43.546;16.426;2022-08-18T00:07:08;101296.38;;;22.98;100.00
54822;BME280;41299;43.546;16.426;2022-08-18T00:09:36;101294.69;;;22.97;100.00
54822;BME280;41299;43.546;16.426;2022-08-18T00:12:06;101304.47;;;22.94;100.00
54822;BME280;41299;43.546;16.426;2022-08-18T00:14:32;101300.28;;;22.88;100.00
54822;BME280;41299;43.546;16.426;2022-08-18T00:16:57;101300.41;;;22.85;100.00
54822;BME280;41299;43.546;16.426;2022-08-18T00:19:23;101305.53;;;22.88;100.00
54822;BME280;41299;43.546;16.426;2022-08-18T00:21:49;101302.91;;;22.88;100.00
54822;BME280;41299;43.546;16.426;2022-08-18T00:24:14;101298.56;;;22.87;100.00
54822;BME280;41299;43.546;16.426;2022-08-18T00:26:40;101296.97;;;22.83;100.00
54822;BME280;41299;43.546;16.426;2022-08-18T00:29:05;101290.72;;;22.85;100.00
54822;BME280;41299;43.546;16.426;2022-08-18T00:31:31;101289.13;;;22.81;100.00
54822;BME280;41299;43.546;16.426;2022-08-18T00:33:57;101289.13;;;22.81;100.00
54822;BME280;41299;43.546;16.426;2022-08-18T00:36:23;101286.69;;;22.77;100.00
54822;BME280;41299;43.546;16.426;2022-08-18T00:38:48;101293.78;;;22.75;100.00
54822;BME280;41299;43.546;16.426;2022-08-18T00:41:13;101294.78;;;22.70;100.00
54822;BME280;41299;43.546;16.426;2022-08-18T00:43:49;101287.13;;;22.64;100.00
54822;BME280;41299;43.546;16.426;2022-08-18T00:46:20;101287.13;;;22.64;100.00
54822;BME280;41299;43.546;16.426;2022-08-18T00:48:46;101287.19;;;22.63;100.00
54822;BME280;41299;43.546;16.426;2022-08-18T00:54:00;101286.25;;;22.64;100.00
54822;BME280;41299;43.546;16.426;2022-08-18T00:56:30;101298.66;;;22.60;100.00
54822;BME280;41299;43.546;16.426;2022-08-18T00:59:10;101294.97;;;22.66;100.00
54822;BME280;41299;43.546;16.426;2022-08-18T01:01:38;101303.22;;;22.55;100.00
54822;BME280;41299;43.546;16.426;2022-08-18T01:04:10;101312.13;;;22.51;100.00
54822;BME280;41299;43.546;16.426;2022-08-18T01:06:41;101311.44;;;22.45;100.00
54822;BME280;41299;43.546;16.426;2022-08-18T01:09:09;101300.97;;;22.44;100.00
54822;BME280;41299;43.546;16.426;2022-08-18T01:11:37;101302.91;;;22.39;100.00
54822;BME280;41299;43.546;16.426;2022-08-18T01:14:05;101307.19;;;22.41;100.00
54822;BME280;41299;43.546;16.426;2022-08-18T01:16:32;101294.97;;;22.40;100.00
54822;BME280;41299;43.546;16.426;2022-08-18T01:19:17;101297.47;;;22.43;100.00
54822;BME280;41299;43.546;16.426;2022-08-18T01:22:20;101299.31;;;22.41;100.00
54822;BME280;41299;43.546;16.426;2022-08-18T01:24:48;101292.38;;;22.39;100.00
54822;BME280;41299;43.546;16.426;2022-08-18T01:27:34;101294.97;;;22.40;100.00
54822;BME280;41299;43.546;16.426;2022-08-18T01:30:11;101291.72;;;22.32;100.00
54822;BME280;41299;43.546;16.426;2022-08-18T01:32:38;101290.16;;;22.28;100.00
54822;BME280;41299;43.546;16.426;2022-08-18T01:35:07;101291.03;;;22.27;100.00
54822;BME280;41299;43.546;16.426;2022-08-18T01:37:36;101286.66;;;22.27;100.00
54822;BME280;41299;43.546;16.426;2022-08-18T01:40:04;101282.53;;;22.20;100.00
54822;BME280;41299;43.546;16.426;2022-08-18T01:42:31;101289.59;;;22.18;100.00
54822;BME280;41299;43.546;16.426;2022-08-18T01:44:56;101289.50;;;22.21;100.00
54822;BME280;41299;43.546;16.426;2022-08-18T01:47:22;101287.69;;;22.22;100.00
54822;BME280;41299;43.546;16.426;2022-08-18T01:49:47;101293.78;;;22.24;100.00
54822;BME280;41299;43.546;16.426;2022-08-18T01:52:18;101288.63;;;22.20;100.00
54822;BME280;41299;43.546;16.426;2022-08-18T01:54:46;101294.78;;;22.19;100.00
54822;BME280;41299;43.546;16.426;2022-08-18T01:57:11;101286.91;;;22.19;100.00
54822;BME280;41299;43.546;16.426;2022-08-18T01:59:40;101284.34;;;22.18;100.00
54822;BME280;41299;43.546;16.426;2022-08-18T02:02:06;101278.53;;;22.08;100.00
54822;BME280;41299;43.546;16.426;2022-08-18T02:04:32;101280.25;;;22.09;100.00
54822;BME280;41299;43.546;16.426;2022-08-18T02:06:59;101274.91;;;22.12;100.00
54822;BME280;41299;43.546;16.426;2022-08-18T02:09:28;101273.03;;;22.16;100.00
54822;BME280;41299;43.546;16.426;2022-08-18T02:11:54;101260.78;;;22.16;100.00
54822;BME280;41299;43.546;16.426;2022-08-18T02:14:19;101256.47;;;22.14;100.00
54822;BME280;41299;43.546;16.426;2022-08-18T02:16:44;101252.06;;;22.14;100.00
54822;BME280;41299;43.546;16.426;2022-08-18T02:19:10;101247.78;;;22.12;100.00
54822;BME280;41299;43.546;16.426;2022-08-18T02:21:36;101246.16;;;22.07;100.00
54822;BME280;41299;43.546;16.426;2022-08-18T02:24:03;101246.16;;;22.07;100.00
54822;BME280;41299;43.546;16.426;2022-08-18T02:26:28;101247.16;;;22.05;100.00
54822;BME280;41299;43.546;16.426;2022-08-18T02:28:54;101251.63;;;22.01;100.00
54822;BME280;41299;43.546;16.426;2022-08-18T02:31:21;101250.88;;;21.98;100.00
54822;BME280;41299;43.546;16.426;2022-08-18T02:33:47;101252.72;;;21.96;100.00
54822;BME280;41299;43.546;16.426;2022-08-18T02:36:13;101257.00;;;21.98;100.00
54822;BME280;41299;43.546;16.426;2022-08-18T02:38:39;101249.16;;;21.97;100.00
54822;BME280;41299;43.546;16.426;2022-08-18T02:41:07;101253.50;;;21.98;100.00
54822;BME280;41299;43.546;16.426;2022-08-18T02:43:35;101259.59;;;22.00;100.00
54822;BME280;41299;43.546;16.426;2022-08-18T02:46:02;101265.03;;;21.93;100.00
54822;BME280;41299;43.546;16.426;2022-08-18T02:48:28;101265.13;;;21.90;100.00
54822;BME280;41299;43.546;16.426;2022-08-18T02:51:13;101268.63;;;21.91;100.00
54822;BME280;41299;43.546;16.426;2022-08-18T02:53:42;101274.06;;;21.85;100.00
54822;BME280;41299;43.546;16.426;2022-08-18T02:56:21;101271.31;;;21.89;100.00
54822;BME280;41299;43.546;16.426;2022-08-18T02:58:56;101269.47;;;21.91;100.00
54822;BME280;41299;43.546;16.426;2022-08-18T03:01:24;101267.97;;;21.84;100.00
54822;BME280;41299;43.546;16.426;2022-08-18T03:03:50;101270.69;;;21.81;100.00
54822;BME280;41299;43.546;16.426;2022-08-18T03:06:16;101262.75;;;21.83;100.00
54822;BME280;41299;43.546;16.426;2022-08-18T03:08:43;101272.31;;;21.85;100.00
54822;BME280;41299;43.546;16.426;2022-08-18T03:11:14;101269.88;;;21.79;100.00
54822;BME280;41299;43.546;16.426;2022-08-18T03:13:40;101257.69;;;21.78;100.00
54822;BME280;41299;43.546;16.426;2022-08-18T03:16:06;101268.19;;;21.78;100.00
54822;BME280;41299;43.546;16.426;2022-08-18T03:18:31;101270.88;;;21.75;100.00
54822;BME280;41299;43.546;16.426;2022-08-18T03:21:05;101264.06;;;21.71;100.00
54822;BME280;41299;43.546;16.426;2022-08-18T03:23:30;101264.84;;;21.73;100.00
54822;BME280;41299;43.546;16.426;2022-08-18T03:25:56;101261.31;;;21.74;100.00
54822;BME280;41299;43.546;16.426;2022-08-18T03:28:21;101256.75;;;21.79;100.00
54822;BME280;41299;43.546;16.426;2022-08-18T03:30:47;101266.41;;;21.78;100.00
54822;BME280;41299;43.546;16.426;2022-08-18T03:33:12;101263.06;;;21.73;100.00
54822;BME280;41299;43.546;16.426;2022-08-18T03:35:38;101272.59;;;21.76;100.00
54822;BME280;41299;43.546;16.426;2022-08-18T03:38:05;101276.25;;;21.72;100.00
54822;BME280;41299;43.546;16.426;2022-08-18T03:40:30;101282.34;;;21.72;100.00
54822;BME280;41299;43.546;16.426;2022-08-18T03:42:56;101286.81;;;21.69;100.00
54822;BME280;41299;43.546;16.426;2022-08-18T03:45:21;101285.84;;;21.73;100.00
54822;BME280;41299;43.546;16.426;2022-08-18T03:47:48;101277.22;;;21.67;100.00
54822;BME280;41299;43.546;16.426;2022-08-18T03:50:16;101280.81;;;21.65;100.00
54822;BME280;41299;43.546;16.426;2022-08-18T03:52:45;101277.38;;;21.63;100.00
54822;BME280;41299;43.546;16.426;2022-08-18T03:55:13;101292.38;;;21.59;100.00
54822;BME280;41299;43.546;16.426;2022-08-18T03:57:40;101288.00;;;21.58;100.00
54822;BME280;41299;43.546;16.426;2022-08-18T04:00:06;101281.97;;;21.56;100.00
54822;BME280;41299;43.546;16.426;2022-08-18T04:02:34;101287.22;;;21.56;100.00
54822;BME280;41299;43.546;16.426;2022-08-18T04:04:59;101294.38;;;21.51;100.00
54822;BME280;41299;43.546;16.426;2022-08-18T04:07:25;101280.25;;;21.55;100.00
54822;BME280;41299;43.546;16.426;2022-08-18T04:09:50;101276.75;;;21.54;100.00
54822;BME280;41299;43.546;16.426;2022-08-18T04:12:16;101282.88;;;21.55;100.00
54822;BME280;41299;43.546;16.426;2022-08-18T04:14:44;101289.78;;;21.58;100.00
54822;BME280;41299;43.546;16.426;2022-08-18T04:17:11;101290.56;;;21.61;100.00
54822;BME280;41299;43.546;16.426;2022-08-18T04:19:37;101303.56;;;21.64;100.00
54822;BME280;41299;43.546;16.426;2022-08-18T04:22:03;101297.31;;;21.69;100.00
54822;BME280;41299;43.546;16.426;2022-08-18T04:24:30;101291.22;;;21.68;100.00
54822;BME280;41299;43.546;16.426;2022-08-18T04:26:57;101301.56;;;21.74;100.00
54822;BME280;41299;43.546;16.426;2022-08-18T04:29:25;101298.84;;;21.76;100.00
54822;BME280;41299;43.546;16.426;2022-08-18T04:31:51;101293.59;;;21.76;100.00
54822;BME280;41299;43.546;16.426;2022-08-18T04:34:18;101284.84;;;21.77;100.00
54822;BME280;41299;43.546;16.426;2022-08-18T04:36:45;101292.56;;;21.82;100.00
54822;BME280;41299;43.546;16.426;2022-08-18T04:39:11;101284.63;;;21.83;100.00
54822;BME280;41299;43.546;16.426;2022-08-18T04:41:39;101284.63;;;21.83;100.00
54822;BME280;41299;43.546;16.426;2022-08-18T04:44:07;101286.22;;;21.87;100.00
54822;BME280;41299;43.546;16.426;2022-08-18T04:46:41;101287.00;;;21.91;100.00
54822;BME280;41299;43.546;16.426;2022-08-18T04:49:08;101279.19;;;21.89;100.00
54822;BME280;41299;43.546;16.426;2022-08-18T04:51:35;101271.31;;;21.89;100.00
54822;BME280;41299;43.546;16.426;2022-08-18T04:54:00;101270.19;;;21.97;100.00
54822;BME280;41299;43.546;16.426;2022-08-18T04:56:29;101272.72;;;22.00;100.00
54822;BME280;41299;43.546;16.426;2022-08-18T05:01:28;101272.38;;;22.09;100.00
54822;BME280;41299;43.546;16.426;2022-08-18T05:03:55;101276.63;;;22.13;100.00
54822;BME280;41299;43.546;16.426;2022-08-18T05:06:22;101279.06;;;22.18;100.00
54822;BME280;41299;43.546;16.426;2022-08-18T05:08:52;101268.47;;;22.21;100.00
54822;BME280;41299;43.546;16.426;2022-08-18T05:11:19;101277.00;;;22.28;100.00
54822;BME280;41299;43.546;16.426;2022-08-18T05:13:46;101270.84;;;22.29;100.00
54822;BME280;41299;43.546;16.426;2022-08-18T05:16:11;101254.84;;;22.35;100.00
54822;BME280;41299;43.546;16.426;2022-08-18T05:18:37;101251.09;;;22.42;100.00
54822;BME280;41299;43.546;16.426;2022-08-18T05:21:08;101249.06;;;22.51;100.00
54822;BME280;41299;43.546;16.426;2022-08-18T05:23:38;101236.59;;;22.56;100.00
54822;BME280;41299;43.546;16.426;2022-08-18T05:26:04;101233.78;;;22.62;100.00
54822;BME280;41299;43.546;16.426;2022-08-18T05:28:30;101236.09;;;22.70;100.00
54822;BME280;41299;43.546;16.426;2022-08-18T05:30:56;101233.13;;;22.79;100.00
54822;BME280;41299;43.546;16.426;2022-08-18T05:33:23;101242.47;;;22.86;100.00
54822;BME280;41299;43.546;16.426;2022-08-18T05:35:54;101244.03;;;22.92;100.00
54822;BME280;41299;43.546;16.426;2022-08-18T05:38:37;101242.06;;;22.97;100.00
54822;BME280;41299;43.546;16.426;2022-08-18T05:41:47;101243.59;;;23.03;100.00
54822;BME280;41299;43.546;16.426;2022-08-18T05:44:06;101237.31;;;23.07;100.00
54822;BME280;41299;43.546;16.426;2022-08-18T05:46:43;101235.34;;;23.12;100.00
54822;BME280;41299;43.546;16.426;2022-08-18T05:49:11;101234.13;;;23.21;100.00
54822;BME280;41299;43.546;16.426;2022-08-18T05:51:48;101241.63;;;23.32;100.00
54822;BME280;41299;43.546;16.426;2022-08-18T05:54:15;101243.28;;;23.35;100.00
54822;BME280;41299;43.546;16.426;2022-08-18T05:57:04;101246.47;;;23.43;100.00
54822;BME280;41299;43.546;16.426;2022-08-18T05:59:34;101248.84;;;23.49;100.00
54822;BME280;41299;43.546;16.426;2022-08-18T06:02:09;101255.56;;;23.57;100.00
54822;BME280;41299;43.546;16.426;2022-08-18T06:04:52;101256.13;;;23.65;100.00
54822;BME280;41299;43.546;16.426;2022-08-18T06:09:54;101265.94;;;23.82;100.00
54822;BME280;41299;43.546;16.426;2022-08-18T06:12:43;101262.81;;;23.93;100.00
54822;BME280;41299;43.546;16.426;2022-08-18T06:20:29;101264.31;;;24.21;100.00
54822;BME280;41299;43.546;16.426;2022-08-18T06:23:24;101255.84;;;24.33;100.00
54822;BME280;41299;43.546;16.426;2022-08-18T06:26:23;101262.31;;;24.47;100.00
54822;BME280;41299;43.546;16.426;2022-08-18T06:37:36;101245.53;;;24.88;100.00
54822;BME280;41299;43.546;16.426;2022-08-18T06:40:24;101236.69;;;25.08;100.00
54822;BME280;41299;43.546;16.426;2022-08-18T06:42:49;101232.81;;;25.16;100.00
54822;BME280;41299;43.546;16.426;2022-08-18T06:45:16;101220.94;;;25.24;100.00
54822;BME280;41299;43.546;16.426;2022-08-18T06:47:58;101222.97;;;25.37;100.00
54822;BME280;41299;43.546;16.426;2022-08-18T06:50:29;101229.34;;;25.50;100.00
54822;BME280;41299;43.546;16.426;2022-08-18T06:53:00;101235.16;;;25.59;100.00
54822;BME280;41299;43.546;16.426;2022-08-18T06:55:38;101228.38;;;25.71;100.00
54822;BME280;41299;43.546;16.426;2022-08-18T06:58:20;101236.28;;;25.71;100.00
54822;BME280;41299;43.546;16.426;2022-08-18T07:03:22;101216.41;;;25.63;100.00
54822;BME280;41299;43.546;16.426;2022-08-18T07:13:44;101216.34;;;25.83;100.00
54822;BME280;41299;43.546;16.426;2022-08-18T07:16:33;101210.59;;;25.92;100.00
54822;BME280;41299;43.546;16.426;2022-08-18T07:19:15;101198.69;;;26.01;100.00
54822;BME280;41299;43.546;16.426;2022-08-18T07:21:42;101186.22;;;26.03;100.00
54822;BME280;41299;43.546;16.426;2022-08-18T07:24:12;101198.50;;;26.04;100.00
54822;BME280;41299;43.546;16.426;2022-08-18T07:29:25;101201.69;;;26.11;100.00
54822;BME280;41299;43.546;16.426;2022-08-18T07:31:53;101189.53;;;26.24;100.00
54822;BME280;41299;43.546;16.426;2022-08-18T07:34:20;101195.34;;;26.31;100.00
54822;BME280;41299;43.546;16.426;2022-08-18T07:36:54;101194.59;;;26.45;100.00
54822;BME280;41299;43.546;16.426;2022-08-18T07:39:28;101197.59;;;26.55;100.00
54822;BME280;41299;43.546;16.426;2022-08-18T07:42:12;101187.28;;;26.66;100.00
54822;BME280;41299;43.546;16.426;2022-08-18T07:44:48;101185.75;;;26.78;100.00
54822;BME280;41299;43.546;16.426;2022-08-18T07:47:27;101187.09;;;26.85;100.00
54822;BME280;41299;43.546;16.426;2022-08-18T07:49:55;101191.03;;;26.94;100.00
54822;BME280;41299;43.546;16.426;2022-08-18T07:52:47;101191.38;;;27.04;100.00
54822;BME280;41299;43.546;16.426;2022-08-18T07:55:30;101191.88;;;27.11;100.00
54822;BME280;41299;43.546;16.426;2022-08-18T07:58:09;101188.78;;;27.19;100.00
54822;BME280;41299;43.546;16.426;2022-08-18T08:00:50;101200.63;;;27.27;100.00
54822;BME280;41299;43.546;16.426;2022-08-18T08:03:45;101184.22;;;27.37;100.00
54822;BME280;41299;43.546;16.426;2022-08-18T08:06:26;101198.31;;;27.37;100.00
54822;BME280;41299;43.546;16.426;2022-08-18T08:22:28;101195.41;;;28.02;100.00
54822;BME280;41299;43.546;16.426;2022-08-18T08:24:59;101185.19;;;28.10;100.00
54822;BME280;41299;43.546;16.426;2022-08-18T08:30:17;101180.38;;;28.17;100.00
54822;BME280;41299;43.546;16.426;2022-08-18T08:33:05;101175.59;;;28.22;100.00
54822;BME280;41299;43.546;16.426;2022-08-18T08:35:39;101160.66;;;28.36;100.00
54822;BME280;41299;43.546;16.426;2022-08-18T08:38:14;101143.22;;;28.46;100.00
54822;BME280;41299;43.546;16.426;2022-08-18T08:47:27;101148.41;;;28.90;100.00
54822;BME280;41299;43.546;16.426;2022-08-18T08:49:41;101152.69;;;29.05;100.00
54822;BME280;41299;43.546;16.426;2022-08-18T08:52:23;101158.34;;;29.13;99.47
54822;BME280;41299;43.546;16.426;2022-08-18T09:00:32;101152.84;;;29.43;100.00
54822;BME280;41299;43.546;16.426;2022-08-18T09:05:36;101137.81;;;29.56;100.00
54822;BME280;41299;43.546;16.426;2022-08-18T09:11:20;101139.63;;;29.82;98.24
54822;BME280;41299;43.546;16.426;2022-08-18T09:16:51;101129.47;;;30.00;98.18
54822;BME280;41299;43.546;16.426;2022-08-18T09:22:03;101141.50;;;30.18;96.70
54822;BME280;41299;43.546;16.426;2022-08-18T09:24:39;101137.78;;;30.21;97.38
54822;BME280;41299;43.546;16.426;2022-08-18T09:27:12;101144.69;;;30.24;94.52
54822;BME280;41299;43.546;16.426;2022-08-18T09:37:22;101132.31;;;30.60;92.76
54822;BME280;41299;43.546;16.426;2022-08-18T09:40:10;101128.47;;;30.64;89.15
54822;BME280;41299;43.546;16.426;2022-08-18T09:43:06;101116.59;;;30.68;83.91
54822;BME280;41299;43.546;16.426;2022-08-18T09:50:56;101096.34;;;31.15;77.88
54822;BME280;41299;43.546;16.426;2022-08-18T09:56:02;101089.78;;;31.66;68.43
54822;BME280;41299;43.546;16.426;2022-08-18T10:01:26;101104.53;;;31.70;72.57
54822;BME280;41299;43.546;16.426;2022-08-18T10:06:40;101119.94;;;31.66;79.31
54822;BME280;41299;43.546;16.426;2022-08-18T10:11:51;101113.50;;;31.69;78.12
54822;BME280;41299;43.546;16.426;2022-08-18T10:14:36;101122.97;;;31.73;76.69
54822;BME280;41299;43.546;16.426;2022-08-18T10:19:55;101105.13;;;31.62;78.68
54822;BME280;41299;43.546;16.426;2022-08-18T10:22:39;101098.00;;;31.63;81.85
54822;BME280;41299;43.546;16.426;2022-08-18T10:25:08;101094.34;;;31.64;78.66
54822;BME280;41299;43.546;16.426;2022-08-18T10:32:54;101096.06;;;31.88;76.78
54822;BME280;41299;43.546;16.426;2022-08-18T10:40:39;101076.03;;;32.16;73.33
54822;BME280;41299;43.546;16.426;2022-08-18T10:43:17;101072.75;;;32.24;71.52
54822;BME280;41299;43.546;16.426;2022-08-18T10:45:47;101078.78;;;32.26;69.01
54822;BME280;41299;43.546;16.426;2022-08-18T10:48:26;101096.38;;;32.29;63.69
54822;BME280;41299;43.546;16.426;2022-08-18T11:06:50;101099.69;;;32.54;67.19
54822;BME280;41299;43.546;16.426;2022-08-18T11:09:26;101091.09;;;32.50;72.36
54822;BME280;41299;43.546;16.426;2022-08-18T11:11:54;101097.41;;;32.49;71.63
54822;BME280;41299;43.546;16.426;2022-08-18T11:19:21;101129.53;;;32.59;71.86
54822;BME280;41299;43.546;16.426;2022-08-18T11:21:49;101123.09;;;32.62;75.80
54822;BME280;41299;43.546;16.426;2022-08-18T11:31:49;101114.38;;;32.59;71.38
54822;BME280;41299;43.546;16.426;2022-08-18T11:34:21;101101.41;;;32.55;68.51
54822;BME280;41299;43.546;16.426;2022-08-18T11:37:02;101105.38;;;32.61;70.75
54822;BME280;41299;43.546;16.426;2022-08-18T11:39:29;101096.63;;;32.70;71.16
54822;BME280;41299;43.546;16.426;2022-08-18T11:41:55;101105.69;;;32.79;69.88
54822;BME280;41299;43.546;16.426;2022-08-18T11:44:24;101096.69;;;32.80;66.08
54822;BME280;41299;43.546;16.426;2022-08-18T11:47:07;101096.63;;;32.91;66.29
54822;BME280;41299;43.546;16.426;2022-08-18T11:49:35;101096.34;;;32.94;70.32
54822;BME280;41299;43.546;16.426;2022-08-18T11:52:27;101100.97;;;33.04;66.59
54822;BME280;41299;43.546;16.426;2022-08-18T11:55:00;101104.03;;;32.99;63.29
54822;BME280;41299;43.546;16.426;2022-08-18T11:57:53;101109.94;;;33.03;67.19
54822;BME280;41299;43.546;16.426;2022-08-18T12:00:55;101111.75;;;33.02;67.63
54822;BME280;41299;43.546;16.426;2022-08-18T12:06:07;101109.38;;;32.99;64.27
54822;BME280;41299;43.546;16.426;2022-08-18T12:08:37;101116.53;;;32.98;63.09
54822;BME280;41299;43.546;16.426;2022-08-18T12:11:47;101125.34;;;33.10;61.98
54822;BME280;41299;43.546;16.426;2022-08-18T12:14:22;101120.13;;;33.09;62.79
54822;BME280;41299;43.546;16.426;2022-08-18T12:16:49;101119.47;;;33.17;69.77
54822;BME280;41299;43.546;16.426;2022-08-18T12:19:15;101116.00;;;33.26;67.41
54822;BME280;41299;43.546;16.426;2022-08-18T12:21:44;101112.34;;;33.27;64.95
54822;BME280;41299;43.546;16.426;2022-08-18T12:24:22;101102.81;;;33.34;63.89
54822;BME280;41299;43.546;16.426;2022-08-18T12:26:49;101107.91;;;33.37;65.08
54822;BME280;41299;43.546;16.426;2022-08-18T12:29:15;101102.75;;;33.46;59.95
54822;BME280;41299;43.546;16.426;2022-08-18T12:31:42;101090.56;;;33.53;60.58
54822;BME280;41299;43.546;16.426;2022-08-18T12:34:08;101095.91;;;33.53;62.96
54822;BME280;41299;43.546;16.426;2022-08-18T12:36:34;101097.59;;;33.54;67.24
54822;BME280;41299;43.546;16.426;2022-08-18T12:38:59;101089.19;;;33.59;72.92
54822;BME280;41299;43.546;16.426;2022-08-18T12:41:25;101092.03;;;33.67;69.12
54822;BME280;41299;43.546;16.426;2022-08-18T12:43:50;101086.13;;;33.73;67.84
54822;BME280;41299;43.546;16.426;2022-08-18T12:46:18;101077.66;;;33.68;68.17
54822;BME280;41299;43.546;16.426;2022-08-18T12:48:44;101084.19;;;33.75;68.34
54822;BME280;41299;43.546;16.426;2022-08-18T12:51:09;101076.00;;;33.77;58.78
54822;BME280;41299;43.546;16.426;2022-08-18T12:53:37;101076.88;;;33.87;56.54
54822;BME280;41299;43.546;16.426;2022-08-18T12:56:02;101078.75;;;33.97;58.26
54822;BME280;41299;43.546;16.426;2022-08-18T12:58:29;101081.13;;;34.00;58.74
54822;BME280;41299;43.546;16.426;2022-08-18T13:00:55;101081.00;;;34.01;56.75
54822;BME280;41299;43.546;16.426;2022-08-18T13:03:21;101083.41;;;33.95;57.89
54822;BME280;41299;43.546;16.426;2022-08-18T13:05:46;101097.16;;;33.90;57.65
54822;BME280;41299;43.546;16.426;2022-08-18T13:08:19;101092.69;;;34.00;54.52
54822;BME280;41299;43.546;16.426;2022-08-18T13:10:45;101100.00;;;33.98;60.86
54822;BME280;41299;43.546;16.426;2022-08-18T13:13:10;101114.50;;;33.96;58.04
54822;BME280;41299;43.546;16.426;2022-08-18T13:15:36;101104.19;;;33.91;55.95
54822;BME280;41299;43.546;16.426;2022-08-18T13:18:02;101114.06;;;33.90;55.01
54822;BME280;41299;43.546;16.426;2022-08-18T13:20:28;101117.97;;;33.76;60.88
54822;BME280;41299;43.546;16.426;2022-08-18T13:22:53;101131.69;;;33.62;67.42
54822;BME280;41299;43.546;16.426;2022-08-18T13:25:19;101136.88;;;33.54;61.42
54822;BME280;41299;43.546;16.426;2022-08-18T13:27:45;101146.63;;;33.64;59.88
54822;BME280;41299;43.546;16.426;2022-08-18T13:30:14;101169.06;;;33.52;58.12
54822;BME280;41299;43.546;16.426;2022-08-18T13:32:39;101189.59;;;33.51;59.30
54822;BME280;41299;43.546;16.426;2022-08-18T13:35:06;101210.19;;;33.39;53.46
54822;BME280;41299;43.546;16.426;2022-08-18T13:37:31;101223.91;;;33.14;53.14
54822;BME280;41299;43.546;16.426;2022-08-18T13:39:58;101246.28;;;33.12;53.63
54822;BME280;41299;43.546;16.426;2022-08-18T13:42:25;101250.13;;;33.20;54.62
54822;BME280;41299;43.546;16.426;2022-08-18T13:44:54;101247.69;;;33.28;56.91
54822;BME280;41299;43.546;16.426;2022-08-18T13:47:20;101241.34;;;33.29;54.55
54822;BME280;41299;43.546;16.426;2022-08-18T13:49:46;101245.06;;;33.38;57.25
54822;BME280;41299;43.546;16.426;2022-08-18T13:52:12;101238.84;;;33.49;59.22
54822;BME280;41299;43.546;16.426;2022-08-18T13:54:39;101230.94;;;33.47;60.17
54822;BME280;41299;43.546;16.426;2022-08-18T13:57:04;101208.22;;;33.42;60.42
54822;BME280;41299;43.546;16.426;2022-08-18T13:59:30;101184.16;;;33.42;63.30
54822;BME280;41299;43.546;16.426;2022-08-18T14:02:01;101172.38;;;33.44;67.84
54822;BME280;41299;43.546;16.426;2022-08-18T14:04:27;101165.28;;;33.55;71.42
54822;BME280;41299;43.546;16.426;2022-08-18T14:06:53;101175.50;;;33.49;75.46
54822;BME280;41299;43.546;16.426;2022-08-18T14:09:20;101186.84;;;33.42;82.58
54822;BME280;41299;43.546;16.426;2022-08-18T14:11:46;101188.75;;;33.30;84.62
54822;BME280;41299;43.546;16.426;2022-08-18T14:14:12;101177.91;;;33.31;88.68
54822;BME280;41299;43.546;16.426;2022-08-18T14:16:38;101176.56;;;33.16;90.44
54822;BME280;41299;43.546;16.426;2022-08-18T14:19:04;101171.78;;;32.98;90.60
54822;BME280;41299;43.546;16.426;2022-08-18T14:21:49;101160.72;;;32.91;90.26
54822;BME280;41299;43.546;16.426;2022-08-18T14:24:34;101151.75;;;32.92;87.00
54822;BME280;41299;43.546;16.426;2022-08-18T14:27:27;101138.50;;;32.91;90.58
54822;BME280;41299;43.546;16.426;2022-08-18T14:29:57;101137.09;;;32.87;87.66
54822;BME280;41299;43.546;16.426;2022-08-18T14:32:24;101127.25;;;32.87;90.83
54822;BME280;41299;43.546;16.426;2022-08-18T14:34:55;101123.03;;;32.73;93.25
54822;BME280;41299;43.546;16.426;2022-08-18T14:37:21;101116.38;;;32.46;91.35
54822;BME280;41299;43.546;16.426;2022-08-18T14:39:46;101111.16;;;32.33;84.43
54822;BME280;41299;43.546;16.426;2022-08-18T14:42:14;101108.38;;;32.46;85.20
54822;BME280;41299;43.546;16.426;2022-08-18T14:44:39;101099.94;;;32.62;82.07
54822;BME280;41299;43.546;16.426;2022-08-18T14:47:05;101094.47;;;32.64;79.84
54822;BME280;41299;43.546;16.426;2022-08-18T14:49:31;101082.06;;;32.63;76.87
54822;BME280;41299;43.546;16.426;2022-08-18T14:51:58;101079.09;;;32.77;77.97
54822;BME280;41299;43.546;16.426;2022-08-18T14:54:24;101072.25;;;32.84;74.28
54822;BME280;41299;43.546;16.426;2022-08-18T14:56:49;101068.88;;;32.82;68.13
54822;BME280;41299;43.546;16.426;2022-08-18T14:59:14;101077.13;;;32.79;75.26
54822;BME280;41299;43.546;16.426;2022-08-18T15:01:41;101073.25;;;32.83;75.68
54822;BME280;41299;43.546;16.426;2022-08-18T15:04:07;101079.09;;;32.77;76.79
54822;BME280;41299;43.546;16.426;2022-08-18T15:06:32;101080.72;;;32.68;70.37
54822;BME280;41299;43.546;16.426;2022-08-18T15:08:57;101075.63;;;32.65;74.27
54822;BME280;41299;43.546;16.426;2022-08-18T15:11:23;101072.38;;;32.62;69.40
54822;BME280;41299;43.546;16.426;2022-08-18T15:13:49;101072.13;;;32.65;75.64
54822;BME280;41299;43.546;16.426;2022-08-18T15:16:15;101060.72;;;32.63;70.49